AKDT,Max TemperatureF,Mean TemperatureF,Min TemperatureF,Max Dew PointF,MeanDew PointF,Min DewpointF,Max Humidity, Mean Humidity, Min Humidity, Max Sea Level PressureIn, Mean Sea Level PressureIn, Min Sea Level PressureIn, Max VisibilityMiles, Mean VisibilityMiles, Min VisibilityMiles, Max Wind SpeedMPH, Mean Wind SpeedMPH, Max Gust SpeedMPH,PrecipitationIn, CloudCover, Events, WindDirDegrees
2013-8-1,68,59,50,55,51,46,94,82,60,30.11,30.07,30.03,10,10,8,14,3,18,0.00,3,,206
2013-8-2,66,58,50,54,51,48,100,80,64,30.11,30.07,30.05,10,10,10,14,3,16,0.00,3,,206
2013-8-3,64,57,50,54,51,46,94,81,68,30.17,30.14,30.10,10,10,10,9,2,,0.00,5,,211
2013-8-4,60,58,55,57,55,54,100,94,88,30.11,30.08,30.05,10,8,2,7,2,,0.00,8,,307
2013-8-5,64,60,55,59,55,52,100,87,73,30.11,30.07,30.03,10,8,2,12,2,16,0.00,7,,241
2013-8-6,71,58,46,57,52,45,100,80,57,30.11,30.06,30.00,10,9,0,9,2,,0.00,2,,213
2013-8-7,73,63,53,57,55,50,88,73,57,30.00,29.96,29.94,10,10,10,7,2,,0.00,2,,204
2013-8-8,57,56,55,54,54,54,94,89,88,29.94,29.94,29.94,10,10,10,4,3,,0.00,6,,207
2013-8-9,,,,,,,,,,,,,,,,,,,,,,
2013-8-10,60,56,51,52,51,48,94,85,72,30.08,30.08,30.07,10,10,10,5,2,,0.00,0,,205
2013-8-11,73,58,44,55,52,45,100,76,50,30.08,30.04,30.00,10,10,1,9,3,,0.00,0,,212
2013-8-12,73,60,46,55,51,45,94,75,50,30.02,30.00,29.97,10,10,10,8,1,,0.00,0,,210
2013-8-13,66,56,46,55,52,45,94,83,68,30.03,30.02,30.00,10,10,10,12,3,17,0.00,1,,221
2013-8-14,68,60,53,57,54,50,94,84,64,30.03,29.90,29.81,10,10,10,9,2,,0.00,4,,221
2013-8-15,68,60,53,55,52,48,94,82,60,29.88,29.83,29.80,10,10,8,14,3,18,0.00,6,,232
2013-8-16,62,58,55,57,55,54,100,92,82,29.88,29.84,29.80,10,8,2,7,2,,0.00,8,,327
2013-8-17,59,56,53,55,54,52,100,95,88,29.80,29.69,29.58,10,9,0,9,4,,0.00,8,,332
2013-8-18,59,57,55,55,53,52,94,86,77,29.73,29.68,29.59,10,10,5,13,6,20,0.00,8,,132
2013-8-19,60,56,51,52,50,48,100,84,63,29.96,29.83,29.73,10,10,5,8,1,,0.00,8,,198
2013-8-20,62,58,53,54,52,52,94,89,68,30.12,30.06,29.96,10,9,1,9,4,,0.00,8,,135
2013-8-21,62,56,51,54,52,48,100,83,68,30.12,29.99,29.87,10,10,2,8,2,,0.00,7,,132
2013-8-22,60,56,51,54,52,48,100,90,63,29.89,29.87,29.85,10,10,3,9,2,,0.00,8,,166
2013-8-23,60,56,53,55,53,52,94,91,72,29.86,29.74,29.61,10,10,5,10,1,,0.00,8,,148
2013-8-24,59,56,53,54,53,50,94,88,77,29.66,29.60,29.57,10,10,5,17,9,25,0.00,8,,129
2013-8-25,60,56,51,57,52,50,100,94,88,29.75,29.71,29.65,10,10,10,9,6,,0.00,8,,328
2013-8-26,53,53,53,52,52,52,94,94,94,29.77,29.74,29.72,10,10,9,10,4,,0.00,8,,329
2013-8-27,64,60,55,54,53,52,94,76,64,29.87,29.77,29.71,10,8,0,8,1,,0.00,6,,181
2013-8-28,68,59,48,55,53,46,100,82,60,29.89,29.88,29.86,10,10,10,7,2,,0.00,5,,294
2013-8-29,69,55,41,55,47,39,100,76,46,29.87,29.81,29.75,10,9,0,12,2,,0.00,3,,314
2013-8-30,62,55,48,57,52,46,100,90,72,30.03,29.91,29.78,10,9,3,6,0,,0.00,6,,27
2013-8-31,60,58,55,57,56,54,100,91,82,30.03,29.99,29.89,10,9,3,14,4,,0.00,8,,125